createdAt,value
2023-05-14T00:01:12.501Z,100635.66
2023-05-14T00:06:15.167Z,100624.28
2023-05-14T00:11:16.825Z,100622.59
2023-05-14T00:16:18.535Z,100624.44
2023-05-14T00:21:20.333Z,100614.31
2023-05-14T00:26:22.274Z,100609.44
2023-05-14T00:31:24.460Z,100601.00
2023-05-14T00:36:26.095Z,100596.59
2023-05-14T00:41:27.805Z,100594.75
2023-05-14T00:46:29.662Z,100590.50
2023-05-14T00:51:31.543Z,100596.59
2023-05-14T00:56:34.250Z,100594.34
2023-05-14T01:01:35.905Z,100595.38
2023-05-14T01:07:04.507Z,100591.44
2023-05-14T01:12:18.311Z,100585.09
2023-05-14T01:17:22.915Z,100583.88
2023-05-14T01:22:24.604Z,100582.47
2023-05-14T01:27:34.542Z,100583.16
2023-05-14T01:32:36.951Z,100581.88
2023-05-14T01:37:39.684Z,100584.25
2023-05-14T01:42:42.880Z,100580.00
2023-05-14T01:47:44.634Z,100587.56
2023-05-14T01:52:46.803Z,100584.72
2023-05-14T01:57:48.443Z,100580.59
2023-05-14T02:02:50.456Z,100578.53
2023-05-14T02:07:52.094Z,100580.84
2023-05-14T02:12:53.734Z,100580.47
2023-05-14T02:17:55.574Z,100579.66
2023-05-14T02:22:57.296Z,100572.31
2023-05-14T02:27:59.191Z,100566.72
2023-05-14T02:33:02.138Z,100576.06
2023-05-14T02:38:04.063Z,100569.16
2023-05-14T02:43:06.220Z,100567.63
2023-05-14T02:48:08.035Z,100575.47
2023-05-14T02:53:09.860Z,100574.38
2023-05-14T02:58:11.626Z,100556.16
2023-05-14T03:03:13.467Z,100567.88
2023-05-14T03:08:15.550Z,100563.47
2023-05-14T03:13:19.964Z,100564.50
2023-05-14T03:18:21.765Z,100564.69
2023-05-14T03:23:23.410Z,100567.13
2023-05-14T03:28:27.116Z,100560.03
2023-05-14T03:33:29.166Z,100564.72
2023-05-14T03:38:30.861Z,100553.06
2023-05-14T03:43:32.496Z,100552.22
2023-05-14T03:48:34.315Z,100546.44
2023-05-14T03:53:38.948Z,100543.44
2023-05-14T03:58:42.388Z,100543.13
2023-05-14T04:03:44.218Z,100546.09
2023-05-14T04:08:46.602Z,100540.38
2023-05-14T04:13:48.234Z,100531.03
2023-05-14T04:18:49.997Z,100528.44
2023-05-14T04:23:51.695Z,100532.78
2023-05-14T04:28:53.334Z,100526.53
2023-05-14T04:33:54.961Z,100535.69
2023-05-14T04:38:56.609Z,100524.91
2023-05-14T04:44:00.535Z,100519.97
2023-05-14T04:49:02.551Z,100514.88
2023-05-14T04:54:04.417Z,100516.03
2023-05-14T04:59:06.425Z,100509.25
2023-05-14T05:04:08.205Z,100510.97
2023-05-14T05:09:09.962Z,100520.69
2023-05-14T05:14:11.609Z,100513.47
2023-05-14T05:19:13.326Z,100513.31
2023-05-14T05:24:15.138Z,100501.69
2023-05-14T05:29:16.763Z,100494.31
2023-05-14T05:34:18.499Z,100503.69
2023-05-14T05:39:20.096Z,100503.94
2023-05-14T05:44:21.764Z,100496.00
2023-05-14T05:49:23.606Z,100491.38
2023-05-14T05:54:25.617Z,100494.75
2023-05-14T05:59:27.252Z,100483.84
2023-05-14T06:04:28.898Z,100484.28
2023-05-14T06:09:30.549Z,100496.53
2023-05-14T06:14:32.197Z,100487.97
2023-05-14T06:19:34.152Z,100488.25
2023-05-14T06:24:35.779Z,100489.47
2023-05-14T06:29:39.516Z,100483.06
2023-05-14T06:34:44.279Z,100486.28
2023-05-14T06:39:50.139Z,100486.06
2023-05-14T06:44:52.060Z,100480.22
2023-05-14T06:49:53.951Z,100470.41
2023-05-14T06:54:55.622Z,100471.59
2023-05-14T06:59:57.521Z,100470.56
2023-05-14T07:04:59.128Z,100461.75
2023-05-14T07:10:01.512Z,100456.47
2023-05-14T07:15:03.334Z,100451.34
2023-05-14T07:20:05.913Z,100452.94
2023-05-14T07:25:07.962Z,100437.09
2023-05-14T07:30:09.903Z,100441.81
2023-05-14T07:35:11.884Z,100442.94
2023-05-14T07:40:13.579Z,100437.09
2023-05-14T07:45:15.231Z,100424.56
2023-05-14T07:50:17.434Z,100422.03
2023-05-14T07:55:19.133Z,100421.28
2023-05-14T08:00:20.823Z,100422.16
2023-05-14T08:05:22.541Z,100421.94
2023-05-14T08:10:24.412Z,100421.63
2023-05-14T08:15:27.944Z,100415.94
2023-05-14T08:20:31.145Z,100411.81
2023-05-14T08:25:33.527Z,100408.56
2023-05-14T08:30:35.403Z,100398.00
2023-05-14T08:35:37.123Z,100408.00
2023-05-14T08:40:38.834Z,100404.84
2023-05-14T08:45:40.514Z,100397.13
2023-05-14T08:50:43.648Z,100398.81
2023-05-14T08:55:46.069Z,100396.78
2023-05-14T09:00:47.819Z,100398.19
2023-05-14T09:05:51.599Z,100391.47
2023-05-14T09:10:53.286Z,100388.22
2023-05-14T09:15:55.341Z,100385.31
2023-05-14T09:20:57.905Z,100384.75
2023-05-14T09:26:00.844Z,100382.03
2023-05-14T09:31:02.704Z,100372.44
2023-05-14T09:36:04.485Z,100370.56
2023-05-14T09:41:06.131Z,100366.56
2023-05-14T09:46:07.854Z,100353.78
2023-05-14T09:51:13.614Z,100341.34
2023-05-14T09:56:15.416Z,100344.72
2023-05-14T10:01:19.579Z,100334.44
2023-05-14T10:06:26.682Z,100330.97
2023-05-14T10:11:31.606Z,100323.44
2023-05-14T10:16:39.038Z,100324.19
2023-05-14T10:21:41.834Z,100319.47
2023-05-14T10:26:44.432Z,100312.56
2023-05-14T10:31:50.686Z,100299.91
2023-05-14T10:36:52.328Z,100286.19
2023-05-14T10:41:53.942Z,100300.09
2023-05-14T10:46:55.656Z,100298.00
2023-05-14T10:51:57.646Z,100283.25
2023-05-14T10:56:59.789Z,100285.78
2023-05-14T11:02:05.433Z,100283.06
2023-05-14T11:07:07.440Z,100280.53
2023-05-14T11:12:09.330Z,100278.00
2023-05-14T11:17:11.772Z,100264.31
2023-05-14T11:22:14.530Z,100269.72
2023-05-14T11:27:17.496Z,100265.53
2023-05-14T11:32:19.720Z,100253.72
2023-05-14T11:37:21.438Z,100250.41
2023-05-14T11:42:23.795Z,100256.72
2023-05-14T11:47:25.505Z,100246.19
2023-05-14T11:52:27.169Z,100244.28
2023-05-14T11:57:31.319Z,100241.56
2023-05-14T12:02:32.983Z,100231.00
2023-05-14T12:07:34.688Z,100218.53
2023-05-14T12:12:39.878Z,100216.03
2023-05-14T12:17:41.650Z,100204.91
2023-05-14T12:22:43.318Z,100203.25
2023-05-14T12:27:45.387Z,100199.56
2023-05-14T12:32:47.171Z,100193.63
2023-05-14T12:37:48.809Z,100194.81
2023-05-14T12:42:50.532Z,100175.16
2023-05-14T12:47:52.252Z,100168.34
2023-05-14T12:52:54.137Z,100162.72
2023-05-14T12:57:55.895Z,100161.00
2023-05-14T13:02:57.626Z,100158.72
2023-05-14T13:08:00.698Z,100164.53
2023-05-14T13:13:02.603Z,100158.84
2023-05-14T13:18:04.860Z,100160.22
2023-05-14T13:23:06.585Z,100158.09
2023-05-14T13:28:08.781Z,100150.69
2023-05-14T13:33:10.566Z,100147.41
2023-05-14T13:38:12.342Z,100147.28
2023-05-14T13:43:17.983Z,100138.69
2023-05-14T13:48:19.670Z,100139.75
2023-05-14T13:53:23.162Z,100137.00
2023-05-14T13:58:25.591Z,100136.41
2023-05-14T14:03:27.383Z,100133.03
2023-05-14T14:08:29.145Z,100131.59
2023-05-14T14:13:30.766Z,100128.44
2023-05-14T14:18:32.696Z,100121.56
2023-05-14T14:23:34.500Z,100106.44
2023-05-14T14:28:36.309Z,100097.84
2023-05-14T14:33:37.921Z,100105.81
2023-05-14T14:38:39.630Z,100102.25
2023-05-14T14:43:41.400Z,100095.94
2023-05-14T14:48:43.997Z,100094.06
2023-05-14T14:53:45.710Z,100092.13
2023-05-14T14:58:47.379Z,100089.38
2023-05-14T15:03:49.298Z,100084.94
2023-05-14T15:08:50.961Z,100088.53
2023-05-14T15:13:52.611Z,100087.06
2023-05-14T15:18:54.437Z,100083.47
2023-05-14T15:23:57.669Z,100079.72
2023-05-14T15:28:59.803Z,100084.16
2023-05-14T15:34:01.679Z,100073.00
2023-05-14T15:39:03.778Z,100073.19
2023-05-14T15:44:05.698Z,100064.16
2023-05-14T15:49:07.362Z,100065.22
2023-05-14T15:54:09.458Z,100061.00
2023-05-14T15:59:11.157Z,100062.47
2023-05-14T16:04:12.886Z,100058.28
2023-05-14T16:09:14.837Z,100060.59
2023-05-14T16:14:16.569Z,100059.53
2023-05-14T16:19:18.400Z,100056.59
2023-05-14T16:24:20.392Z,100058.69
2023-05-14T16:29:22.363Z,100061.78
2023-05-14T16:34:23.971Z,100077.81
2023-05-14T16:39:25.694Z,100079.16
2023-05-14T16:44:27.406Z,100073.91
2023-05-14T16:49:29.024Z,100081.19
2023-05-14T16:54:31.042Z,100081.34
2023-05-14T16:59:32.723Z,100075.19
2023-05-14T17:04:38.793Z,100067.16
2023-05-14T17:09:40.819Z,100060.88
2023-05-14T17:14:42.492Z,100049.34
2023-05-14T17:19:45.635Z,100049.72
2023-05-14T17:24:47.289Z,100049.34
2023-05-14T17:29:51.117Z,100058.81
2023-05-14T17:34:52.952Z,100067.75
2023-05-14T17:39:54.620Z,100063.28
2023-05-14T17:44:56.276Z,100066.41
2023-05-14T17:49:58.032Z,100056.81
2023-05-14T17:55:00.251Z,100063.66
2023-05-14T18:00:02.159Z,100056.28
2023-05-14T18:05:12.480Z,100061.00
2023-05-14T18:10:14.178Z,100056.94
2023-05-14T18:15:15.858Z,100060.44
2023-05-14T18:20:17.503Z,100050.44
2023-05-14T18:25:19.253Z,100058.06
2023-05-14T18:30:20.956Z,100060.72
2023-05-14T18:35:22.700Z,100062.13
2023-05-14T18:40:24.405Z,100071.06
2023-05-14T18:45:26.286Z,100072.38
2023-05-14T18:50:28.063Z,100073.50
2023-05-14T18:55:29.907Z,100079.41
2023-05-14T19:00:31.580Z,100081.75
2023-05-14T19:05:33.287Z,100087.47
2023-05-14T19:10:34.929Z,100089.63
2023-05-14T19:15:37.088Z,100099.69
2023-05-14T19:20:42.328Z,100105.00
2023-05-14T19:25:44.945Z,100092.31
2023-05-14T19:30:47.709Z,100103.63
2023-05-14T19:35:49.414Z,100101.00
2023-05-14T19:40:53.108Z,100102.56
2023-05-14T19:45:54.865Z,100101.59
2023-05-14T19:50:56.708Z,100094.69
2023-05-14T19:55:59.296Z,100093.91
2023-05-14T20:01:01.037Z,100087.53
2023-05-14T20:06:02.756Z,100087.88
2023-05-14T20:11:04.429Z,100080.66
2023-05-14T20:16:06.693Z,100085.47
2023-05-14T20:21:08.381Z,100066.84
2023-05-14T20:26:10.068Z,100060.63
2023-05-14T20:31:11.778Z,100067.09
2023-05-14T20:36:13.485Z,100059.84
2023-05-14T20:41:15.192Z,100052.59
2023-05-14T20:46:16.871Z,100057.34
2023-05-14T20:51:18.585Z,100048.56
2023-05-14T20:56:20.688Z,100038.72
2023-05-14T21:01:22.374Z,100036.03
2023-05-14T21:06:24.516Z,100030.66
2023-05-14T21:11:26.201Z,100034.56
2023-05-14T21:16:27.829Z,100029.81
2023-05-14T21:21:29.444Z,100021.06
2023-05-14T21:26:32.170Z,100018.84
2023-05-14T21:31:33.814Z,100019.06
2023-05-14T21:36:35.733Z,100008.25
2023-05-14T21:41:37.413Z,100009.63
2023-05-14T21:46:39.097Z,100004.56
2023-05-14T21:51:40.787Z,99997.81
2023-05-14T21:56:42.576Z,99982.06
2023-05-14T22:06:49.480Z,99979.72
2023-05-14T22:11:51.216Z,99976.84
2023-05-14T22:16:53.025Z,99978.69
2023-05-14T22:21:54.725Z,99979.19
2023-05-14T22:26:56.327Z,99965.31
2023-05-14T22:31:58.094Z,99960.88
2023-05-14T22:37:00.352Z,99956.13
2023-05-14T22:42:02.029Z,99951.84
2023-05-14T22:47:05.236Z,99946.63
2023-05-14T22:52:06.861Z,99953.06
2023-05-14T22:57:08.471Z,99939.50
2023-05-14T23:02:10.168Z,99931.88
2023-05-14T23:07:11.826Z,99928.50
2023-05-14T23:12:13.533Z,99918.38
2023-05-14T23:17:17.104Z,99914.66
2023-05-14T23:22:18.754Z,99898.44
2023-05-14T23:27:20.968Z,99898.78
2023-05-14T23:32:22.959Z,99893.91
2023-05-14T23:37:24.626Z,99894.25
2023-05-14T23:42:26.283Z,99884.59
2023-05-14T23:47:27.950Z,99880.72
2023-05-14T23:52:29.581Z,99870.63
2023-05-14T23:57:31.301Z,99861.66
